createdAt,value
2023-03-26T00:00:44.458Z,6.03
2023-03-26T00:03:53.802Z,6.04
2023-03-26T00:06:56.609Z,6.06
2023-03-26T00:09:59.407Z,6.07
2023-03-26T00:13:02.703Z,6.00
2023-03-26T00:16:06.025Z,5.91
2023-03-26T00:19:09.934Z,5.82
2023-03-26T00:22:14.290Z,5.75
2023-03-26T00:25:17.645Z,5.65
2023-03-26T00:28:21.981Z,5.50
2023-03-26T00:31:24.932Z,5.39
2023-03-26T00:34:27.693Z,5.35
2023-03-26T00:37:31.261Z,5.35
2023-03-26T00:40:36.910Z,5.29
2023-03-26T00:43:39.780Z,5.21
2023-03-26T00:46:44.016Z,5.17
2023-03-26T00:49:49.036Z,4.88
2023-03-26T00:52:52.106Z,4.76
2023-03-26T00:56:00.493Z,4.55
2023-03-26T00:59:03.990Z,4.40
2023-03-26T01:02:10.812Z,4.29
2023-03-26T01:05:35.606Z,4.29
2023-03-26T01:08:45.325Z,4.10
2023-03-26T01:11:49.878Z,3.93
2023-03-26T01:15:00.843Z,3.94
2023-03-26T01:18:06.043Z,3.87
2023-03-26T01:21:09.851Z,3.92
2023-03-26T01:24:13.897Z,3.93
2023-03-26T01:27:24.646Z,3.90
2023-03-26T01:31:25.411Z,3.77
2023-03-26T01:35:03.676Z,3.66
2023-03-26T01:38:28.059Z,3.58
2023-03-26T01:41:42.986Z,3.55
2023-03-26T01:44:57.055Z,3.42
2023-03-26T01:48:00.590Z,3.26
2023-03-26T01:51:05.021Z,3.26
2023-03-26T01:54:13.061Z,3.47
2023-03-26T01:57:37.713Z,3.40
2023-03-26T02:00:51.936Z,3.31
2023-03-26T02:04:06.420Z,3.28
2023-03-26T02:07:13.800Z,3.35
2023-03-26T02:10:24.355Z,3.29
2023-03-26T02:13:28.069Z,3.20
2023-03-26T02:16:30.892Z,3.22
2023-03-26T02:19:33.708Z,3.17
2023-03-26T02:22:41.181Z,3.06
2023-03-26T02:25:45.762Z,3.06
2023-03-26T02:28:48.815Z,3.08
2023-03-26T02:31:51.978Z,3.05
2023-03-26T02:34:54.766Z,3.00
2023-03-26T02:37:57.689Z,3.08
2023-03-26T02:41:01.481Z,3.02
2023-03-26T02:44:14.476Z,2.93
2023-03-26T02:47:51.287Z,3.03
2023-03-26T02:51:29.662Z,3.28
2023-03-26T02:54:37.212Z,3.33
2023-03-26T02:57:53.289Z,3.46
2023-03-26T03:00:59.356Z,3.57
2023-03-26T03:04:12.995Z,3.36
2023-03-26T03:07:16.538Z,3.20
2023-03-26T03:10:22.174Z,2.99
2023-03-26T03:13:44.788Z,2.85
2023-03-26T03:16:49.163Z,2.91
2023-03-26T03:19:51.998Z,3.07
2023-03-26T03:22:54.997Z,3.23
2023-03-26T03:25:59.297Z,3.35
2023-03-26T03:29:02.454Z,3.34
2023-03-26T03:32:05.652Z,3.41
2023-03-26T03:35:17.505Z,3.28
2023-03-26T03:38:25.421Z,3.04
2023-03-26T03:41:30.107Z,2.88
2023-03-26T03:44:33.861Z,2.66
2023-03-26T03:47:39.900Z,2.50
2023-03-26T03:50:43.264Z,2.37
2023-03-26T03:54:08.694Z,2.25
2023-03-26T03:57:22.188Z,2.21
2023-03-26T04:00:34.116Z,2.11
2023-03-26T04:03:58.285Z,2.03
2023-03-26T04:07:13.423Z,2.02
2023-03-26T04:10:35.740Z,1.98
2023-03-26T04:13:47.377Z,1.92
2023-03-26T04:17:06.037Z,1.92
2023-03-26T04:20:15.958Z,1.99
2023-03-26T04:23:22.745Z,1.96
2023-03-26T04:26:32.601Z,2.12
2023-03-26T04:29:46.187Z,2.17
2023-03-26T04:32:54.302Z,2.16
2023-03-26T04:36:01.837Z,2.28
2023-03-26T04:39:07.736Z,2.15
2023-03-26T04:42:33.441Z,1.88
2023-03-26T04:45:48.212Z,1.80
2023-03-26T04:48:55.117Z,1.81
2023-03-26T04:51:58.196Z,1.69
2023-03-26T04:55:33.247Z,1.74
2023-03-26T04:58:43.431Z,1.85
2023-03-26T05:01:47.476Z,1.99
2023-03-26T05:04:52.630Z,2.19
2023-03-26T05:07:56.780Z,2.33
2023-03-26T05:10:59.840Z,2.38
2023-03-26T05:14:09.006Z,2.45
2023-03-26T05:17:15.209Z,2.52
2023-03-26T05:20:22.361Z,2.53
2023-03-26T05:23:25.837Z,2.55
2023-03-26T05:26:52.133Z,2.33
2023-03-26T05:30:02.997Z,2.39
2023-03-26T05:33:13.162Z,2.46
2023-03-26T05:36:23.283Z,2.45
2023-03-26T05:39:41.367Z,2.21
2023-03-26T05:43:03.555Z,2.49
2023-03-26T05:46:12.978Z,2.52
2023-03-26T05:49:15.903Z,2.49
2023-03-26T05:52:19.408Z,2.53
2023-03-26T05:55:55.879Z,2.86
2023-03-26T05:59:17.262Z,3.12
2023-03-26T06:02:39.447Z,3.54
2023-03-26T06:06:10.673Z,3.83
2023-03-26T06:09:18.973Z,4.92
2023-03-26T06:12:22.265Z,6.33
2023-03-26T06:15:25.273Z,7.59
2023-03-26T06:18:37.039Z,8.80
2023-03-26T06:22:15.824Z,10.58
2023-03-26T06:25:37.665Z,10.90
2023-03-26T06:28:49.726Z,11.40
2023-03-26T06:32:25.206Z,10.18
2023-03-26T06:35:32.527Z,9.65
2023-03-26T06:38:35.739Z,10.34
2023-03-26T06:41:41.565Z,11.38
2023-03-26T06:44:55.961Z,13.09
2023-03-26T06:48:17.358Z,14.18
2023-03-26T06:51:33.640Z,14.84
2023-03-26T06:55:13.782Z,15.28
2023-03-26T06:58:24.557Z,15.69
2023-03-26T07:01:46.850Z,16.97
2023-03-26T07:05:22.678Z,17.03
2023-03-26T07:08:44.183Z,18.13
2023-03-26T07:12:12.924Z,18.89
2023-03-26T07:15:34.750Z,19.01
2023-03-26T07:18:58.022Z,19.59
2023-03-26T07:22:06.689Z,19.80
2023-03-26T07:25:42.227Z,20.82
2023-03-26T07:29:33.091Z,21.80
2023-03-26T07:33:14.779Z,22.06
2023-03-26T07:36:57.540Z,22.19
2023-03-26T07:40:40.865Z,23.25
2023-03-26T07:44:44.047Z,23.39
2023-03-26T07:47:57.227Z,23.98
2023-03-26T07:51:12.408Z,23.65
2023-03-26T07:54:34.237Z,23.87
2023-03-26T07:58:05.647Z,24.95
2023-03-26T08:02:06.023Z,23.98
2023-03-26T08:05:20.407Z,23.86
2023-03-26T08:08:47.971Z,24.13
2023-03-26T08:12:51.555Z,25.21
2023-03-26T08:15:58.370Z,24.76
2023-03-26T08:19:19.669Z,25.27
2023-03-26T08:22:31.626Z,25.57
2023-03-26T08:25:52.035Z,24.93
2023-03-26T08:29:16.784Z,24.37
2023-03-26T08:32:20.733Z,25.30
2023-03-26T08:35:25.628Z,25.05
2023-03-26T08:38:28.619Z,25.87
2023-03-26T08:42:21.661Z,25.42
2023-03-26T08:45:56.771Z,25.62
2023-03-26T08:49:09.089Z,25.74
2023-03-26T08:52:21.776Z,26.21
2023-03-26T08:55:55.425Z,25.72
2023-03-26T08:59:36.262Z,23.62
2023-03-26T09:03:03.329Z,24.41
2023-03-26T09:06:25.439Z,24.32
2023-03-26T09:09:37.310Z,25.38
2023-03-26T09:13:01.298Z,25.18
2023-03-26T09:16:29.912Z,24.84
2023-03-26T09:20:10.150Z,24.66
2023-03-26T09:23:19.408Z,24.91
2023-03-26T09:26:51.113Z,25.33
2023-03-26T09:30:21.835Z,25.62
2023-03-26T09:33:52.338Z,25.73
2023-03-26T09:37:33.756Z,25.47
2023-03-26T09:41:13.953Z,26.49
2023-03-26T09:44:56.544Z,26.04
2023-03-26T09:48:19.141Z,25.98
2023-03-26T09:51:38.615Z,25.85
2023-03-26T09:54:50.667Z,26.02
2023-03-26T09:58:33.185Z,26.72
2023-03-26T10:01:38.826Z,25.56
2023-03-26T10:04:59.708Z,26.97
2023-03-26T10:08:40.123Z,24.81
2023-03-26T10:12:12.380Z,25.50
2023-03-26T10:15:27.224Z,25.85
2023-03-26T10:18:50.161Z,26.50
2023-03-26T10:22:14.137Z,25.30
2023-03-26T10:25:42.815Z,26.74
2023-03-26T10:28:59.593Z,26.46
2023-03-26T10:32:44.423Z,27.65
2023-03-26T10:35:53.308Z,26.99
2023-03-26T10:39:38.487Z,24.28
2023-03-26T10:43:07.353Z,23.57
2023-03-26T10:46:26.657Z,22.98
2023-03-26T10:49:55.788Z,24.34
2023-03-26T10:53:23.540Z,26.40
2023-03-26T10:56:41.003Z,25.85
2023-03-26T10:59:43.768Z,27.27
2023-03-26T11:02:59.268Z,25.64
2023-03-26T11:06:20.527Z,24.64
2023-03-26T11:09:38.731Z,23.71
2023-03-26T11:13:14.682Z,24.44
2023-03-26T11:16:44.839Z,23.17
2023-03-26T11:19:47.553Z,21.72
2023-03-26T11:23:05.880Z,20.96
2023-03-26T11:26:17.443Z,20.37
2023-03-26T11:29:49.951Z,19.73
2023-03-26T11:32:57.894Z,19.19
2023-03-26T11:36:09.043Z,18.86
2023-03-26T11:39:17.894Z,18.40
2023-03-26T11:42:24.526Z,17.99
2023-03-26T11:45:32.244Z,17.81
2023-03-26T11:48:49.145Z,17.65
2023-03-26T11:51:52.251Z,17.45
2023-03-26T11:54:59.520Z,17.49
2023-03-26T11:58:06.220Z,17.98
2023-03-26T12:01:30.105Z,18.23
2023-03-26T12:04:41.822Z,18.45
2023-03-26T12:07:51.441Z,18.65
2023-03-26T12:11:10.454Z,18.42
2023-03-26T12:14:24.994Z,18.37
2023-03-26T12:17:35.973Z,18.41
2023-03-26T12:20:39.804Z,18.29
2023-03-26T12:23:51.700Z,19.28
2023-03-26T12:27:02.237Z,23.00
2023-03-26T12:30:26.341Z,25.27
2023-03-26T12:33:34.343Z,25.06
2023-03-26T12:36:39.121Z,24.51
2023-03-26T12:40:08.608Z,22.17
2023-03-26T12:44:49.858Z,21.61
2023-03-26T12:47:57.902Z,21.52
2023-03-26T12:50:15.681Z,20.95
2023-03-26T12:53:34.085Z,21.96
2023-03-26T12:56:42.025Z,21.38
2023-03-26T13:00:23.033Z,21.98
2023-03-26T13:03:52.907Z,21.00
2023-03-26T13:07:14.311Z,22.83
2023-03-26T13:10:34.973Z,23.22
2023-03-26T13:13:52.890Z,22.79
2023-03-26T13:17:02.726Z,22.63
2023-03-26T13:20:35.632Z,22.76
2023-03-26T13:23:50.433Z,23.38
2023-03-26T13:27:31.031Z,21.49
2023-03-26T13:30:59.152Z,21.03
2023-03-26T13:34:28.607Z,20.42
2023-03-26T13:37:37.329Z,20.60
2023-03-26T13:41:15.647Z,20.63
2023-03-26T13:44:33.709Z,21.25
2023-03-26T13:47:41.542Z,21.89
2023-03-26T13:51:10.018Z,22.15
2023-03-26T13:54:30.720Z,22.09
2023-03-26T13:57:39.632Z,22.62
2023-03-26T14:00:55.739Z,22.69
2023-03-26T14:04:06.957Z,23.15
2023-03-26T14:07:16.092Z,23.03
2023-03-26T14:10:25.004Z,22.69
2023-03-26T14:14:16.961Z,22.90
2023-03-26T14:17:58.798Z,22.92
2023-03-26T14:21:43.050Z,23.16
2023-03-26T14:24:55.101Z,22.66
2023-03-26T14:28:21.773Z,21.30
2023-03-26T14:31:51.642Z,21.95
2023-03-26T14:35:11.755Z,22.13
2023-03-26T14:38:37.286Z,21.78
2023-03-26T14:41:49.220Z,21.42
2023-03-26T14:45:26.394Z,21.22
2023-03-26T14:48:54.104Z,20.28
2023-03-26T14:52:07.535Z,19.17
2023-03-26T14:55:26.872Z,19.17
2023-03-26T14:58:42.082Z,19.16
2023-03-26T15:02:17.629Z,19.08
2023-03-26T15:05:26.723Z,19.14
2023-03-26T15:08:51.795Z,18.89
2023-03-26T15:12:13.723Z,18.81
2023-03-26T15:16:05.412Z,18.68
2023-03-26T15:19:20.703Z,18.30
2023-03-26T15:22:39.223Z,18.29
2023-03-26T15:26:04.319Z,18.14
2023-03-26T15:29:45.925Z,18.02
2023-03-26T15:32:58.471Z,17.96
2023-03-26T15:36:04.266Z,17.82
2023-03-26T15:39:59.784Z,17.55
2023-03-26T15:43:13.601Z,17.56
2023-03-26T15:46:51.918Z,17.36
2023-03-26T15:50:32.314Z,17.29
2023-03-26T15:53:45.319Z,17.14
2023-03-26T15:57:20.157Z,17.04
2023-03-26T16:00:26.053Z,16.90
2023-03-26T16:03:39.959Z,16.72
2023-03-26T16:06:54.738Z,16.62
2023-03-26T16:10:13.601Z,16.61
2023-03-26T16:13:17.528Z,16.56
2023-03-26T16:16:25.485Z,16.48
2023-03-26T16:19:49.130Z,16.53
2023-03-26T16:22:52.325Z,16.43
2023-03-26T16:26:19.706Z,16.18
2023-03-26T16:29:26.946Z,16.01
2023-03-26T16:32:36.678Z,15.80
2023-03-26T16:35:42.096Z,15.60
2023-03-26T16:39:07.298Z,15.49
2023-03-26T16:42:16.330Z,15.47
2023-03-26T16:45:27.325Z,15.23
2023-03-26T16:48:55.701Z,15.08
2023-03-26T16:52:35.851Z,15.07
2023-03-26T16:55:42.860Z,15.04
2023-03-26T16:59:01.899Z,14.95
2023-03-26T17:02:23.328Z,14.91
2023-03-26T17:06:02.400Z,14.74
2023-03-26T17:09:24.804Z,14.72
2023-03-26T17:12:46.602Z,14.63
2023-03-26T17:16:16.787Z,14.55
2023-03-26T17:19:42.018Z,14.52
2023-03-26T17:23:22.373Z,14.40
2023-03-26T17:26:42.652Z,14.32
2023-03-26T17:30:00.513Z,14.19
2023-03-26T17:33:06.190Z,14.18
2023-03-26T17:36:12.026Z,14.29
2023-03-26T17:39:21.405Z,14.30
2023-03-26T17:42:29.037Z,14.25
2023-03-26T17:45:37.098Z,14.20
2023-03-26T17:48:47.043Z,14.20
2023-03-26T17:52:15.549Z,14.18
2023-03-26T17:55:22.413Z,14.11
2023-03-26T17:58:31.935Z,14.01
2023-03-26T18:01:44.304Z,14.01
2023-03-26T18:04:52.994Z,13.98
2023-03-26T18:08:28.281Z,13.94
2023-03-26T18:11:56.257Z,13.88
2023-03-26T18:15:20.977Z,13.92
2023-03-26T18:18:29.939Z,13.80
2023-03-26T18:21:39.451Z,13.89
2023-03-26T18:24:42.327Z,13.84
2023-03-26T18:27:45.821Z,13.79
2023-03-26T18:30:49.302Z,13.71
2023-03-26T18:33:59.400Z,13.67
2023-03-26T18:37:15.000Z,13.73
2023-03-26T18:40:21.247Z,13.75
2023-03-26T18:43:34.453Z,13.72
2023-03-26T18:46:38.892Z,13.64
2023-03-26T18:49:47.277Z,13.67
2023-03-26T18:52:51.427Z,13.68
2023-03-26T18:55:54.640Z,13.61
2023-03-26T18:58:59.727Z,13.51
2023-03-26T19:02:07.545Z,13.51
2023-03-26T19:05:15.734Z,13.43
2023-03-26T19:08:19.775Z,13.50
2023-03-26T19:11:24.447Z,13.53
2023-03-26T19:14:28.728Z,13.51
2023-03-26T19:17:39.346Z,13.58
2023-03-26T19:20:45.922Z,13.60
2023-03-26T19:23:49.986Z,13.68
2023-03-26T19:26:53.578Z,13.72
2023-03-26T19:29:57.736Z,13.69
2023-03-26T19:33:13.863Z,13.60
2023-03-26T19:36:21.507Z,13.55
2023-03-26T19:39:39.669Z,13.39
2023-03-26T19:42:44.996Z,13.36
2023-03-26T19:49:47.243Z,13.18
2023-03-26T19:51:18.388Z,13.25
2023-03-26T19:53:16.808Z,13.13
2023-03-26T19:56:22.125Z,13.04
2023-03-26T19:59:25.261Z,13.03
2023-03-26T20:02:29.356Z,13.06
2023-03-26T20:05:36.501Z,13.20
2023-03-26T20:08:40.745Z,13.03
2023-03-26T20:11:43.929Z,12.88
2023-03-26T20:14:48.927Z,12.52
2023-03-26T20:17:55.736Z,12.46
2023-03-26T20:21:01.764Z,12.13
2023-03-26T20:24:15.034Z,11.76
2023-03-26T20:27:19.364Z,11.60
2023-03-26T20:30:37.052Z,11.43
2023-03-26T20:33:41.355Z,11.23
2023-03-26T20:36:45.807Z,11.07
2023-03-26T20:39:48.660Z,10.95
2023-03-26T20:42:51.868Z,10.92
2023-03-26T20:45:55.895Z,10.98
2023-03-26T20:49:00.035Z,11.00
2023-03-26T20:52:03.070Z,11.06
2023-03-26T20:55:06.480Z,11.09
2023-03-26T20:58:13.617Z,11.06
2023-03-26T21:01:17.681Z,11.05
2023-03-26T21:04:22.516Z,11.04
2023-03-26T21:07:25.334Z,11.03
2023-03-26T21:10:31.690Z,11.00
2023-03-26T21:13:50.166Z,10.94
2023-03-26T21:16:53.860Z,10.88
2023-03-26T21:19:57.732Z,10.82
2023-03-26T21:23:10.103Z,10.79
2023-03-26T21:26:32.792Z,10.69
2023-03-26T21:29:35.947Z,10.57
2023-03-26T21:32:39.352Z,10.55
2023-03-26T21:35:42.575Z,10.42
2023-03-26T21:38:46.394Z,10.37
2023-03-26T21:42:04.977Z,10.39
2023-03-26T21:45:09.836Z,10.35
2023-03-26T21:48:13.363Z,10.26
2023-03-26T21:51:19.438Z,10.19
2023-03-26T21:54:25.969Z,10.17
2023-03-26T21:57:36.907Z,10.19
2023-03-26T22:01:01.615Z,10.09
2023-03-26T22:04:15.560Z,10.03
2023-03-26T22:07:23.394Z,9.97
2023-03-26T22:10:27.518Z,9.94
2023-03-26T22:13:31.230Z,10.01
2023-03-26T22:16:34.132Z,9.99
2023-03-26T22:19:37.392Z,10.03
2023-03-26T22:22:48.890Z,10.00
2023-03-26T22:25:52.405Z,9.93
2023-03-26T22:28:55.133Z,9.85
2023-03-26T22:31:58.029Z,9.89
2023-03-26T22:35:01.332Z,9.91
2023-03-26T22:38:05.255Z,9.93
2023-03-26T22:41:08.653Z,9.83
2023-03-26T22:44:19.648Z,9.80
2023-03-26T22:47:22.892Z,9.79
2023-03-26T22:50:27.158Z,9.80
2023-03-26T22:53:31.054Z,9.82
2023-03-26T22:56:34.133Z,9.78
2023-03-26T22:59:37.565Z,9.86
2023-03-26T23:02:41.269Z,9.88
2023-03-26T23:05:44.239Z,9.89
2023-03-26T23:08:47.290Z,9.89
2023-03-26T23:11:51.054Z,9.88
2023-03-26T23:14:54.083Z,9.90
2023-03-26T23:17:58.741Z,9.86
2023-03-26T23:21:01.793Z,9.83
2023-03-26T23:24:05.291Z,9.79
2023-03-26T23:27:08.513Z,9.81
2023-03-26T23:30:12.004Z,9.86
2023-03-26T23:33:14.941Z,9.84
2023-03-26T23:36:19.595Z,9.60
2023-03-26T23:39:22.473Z,9.57
2023-03-26T23:42:28.631Z,9.43
2023-03-26T23:45:33.548Z,9.40
2023-03-26T23:48:37.760Z,9.43
2023-03-26T23:51:40.778Z,9.41
2023-03-26T23:54:44.790Z,9.40
2023-03-26T23:57:47.854Z,9.36
